CYCX

CFB Gagetown Heliport

Gagetown, New Brunswick, Canada
METAR CYCX 211500Z 30013KT 15SM FEW034 FEW210 08/M05 A3007 RMK CU1CI1 DA-813FT SLP184
Observed Flight Rules
Apr-21 @ 15:00 UTC (41 minutes ago) Visual Flight Rules
Wind Visibility Clouds
300° at 13 knots 15 miles
  • Few at 3,400' AGL
  • Few at 21,000' AGL
Temperatures Readings
Current 8°C / 46°F
Dewpoint -5°C / 23°F
Humidity 40%
Altimeter 30.07" Hg
Pressure 1018.4 hPa
Elevation 51
METAR CYCX 211500Z 30013KT 15SM FEW034 FEW210 08/M05 A3007 RMK CU1CI1 DA-813FT SLP184
Observed Flight Rules
Apr-21 @ 15:00 UTC
(41 minutes ago)
VFR
Wind Visibility
300° at 13 knots 15 miles
Clouds
  • Few at 3,400' AGL
  • Few at 21,000' AGL
Temperature Dewpoint
8°C / 46°F -5°C / 23°F
Humidity Altimeter Pressure
40% 30.07" Hg 1018.4 hPa